createdAt,value
2019-04-25T00:00:38.829Z,13.10
2019-04-25T00:03:06.010Z,13.20
2019-04-25T00:05:32.953Z,13.30
2019-04-25T00:08:01.435Z,13.20
2019-04-25T00:10:28.510Z,13.30
2019-04-25T00:12:55.357Z,13.20
2019-04-25T00:15:22.463Z,13.00
2019-04-25T00:17:49.285Z,12.80
2019-04-25T00:20:16.173Z,12.70
2019-04-25T00:22:51.527Z,12.70
2019-04-25T00:25:23.864Z,12.60
2019-04-25T00:27:51.645Z,12.50
2019-04-25T00:30:21.005Z,12.70
2019-04-25T00:32:49.306Z,12.70
2019-04-25T00:35:16.337Z,12.80
2019-04-25T00:37:45.062Z,12.90
2019-04-25T00:40:11.850Z,12.70
2019-04-25T00:42:42.782Z,12.50
2019-04-25T00:45:08.925Z,12.60
2019-04-25T00:47:35.789Z,12.80
2019-04-25T00:50:03.377Z,12.80
2019-04-25T00:52:31.355Z,12.60
2019-04-25T00:54:58.349Z,12.60
2019-04-25T00:57:26.193Z,12.50
2019-04-25T01:00:11.620Z,12.40
2019-04-25T01:02:40.334Z,12.30
2019-04-25T01:05:07.397Z,12.30
2019-04-25T01:07:34.533Z,12.30
2019-04-25T01:10:02.432Z,12.30
2019-04-25T01:12:29.497Z,12.10
2019-04-25T01:14:56.426Z,12.10
2019-04-25T01:17:23.580Z,12.00
2019-04-25T01:19:51.005Z,11.70
2019-04-25T01:22:17.988Z,11.60
2019-04-25T01:24:45.644Z,11.80
2019-04-25T01:27:13.535Z,11.70
2019-04-25T01:29:40.682Z,11.80
2019-04-25T01:32:09.322Z,11.80
2019-04-25T01:34:44.293Z,11.90
2019-04-25T01:37:13.956Z,11.90
2019-04-25T01:39:45.575Z,11.70
2019-04-25T01:42:14.304Z,11.70
2019-04-25T01:44:46.069Z,11.60
2019-04-25T01:47:14.209Z,11.60
2019-04-25T01:49:41.059Z,11.40
2019-04-25T01:52:07.865Z,11.50
2019-04-25T01:54:34.789Z,11.30
2019-04-25T01:57:01.689Z,11.30
2019-04-25T01:59:28.720Z,11.40
2019-04-25T02:01:55.653Z,11.30
2019-04-25T02:04:23.172Z,11.40
2019-04-25T02:06:51.363Z,11.50
2019-04-25T02:09:20.624Z,11.60
2019-04-25T02:12:01.456Z,11.30
2019-04-25T02:14:28.249Z,11.10
2019-04-25T02:16:56.269Z,11.00
2019-04-25T02:19:24.202Z,11.00
2019-04-25T02:21:51.439Z,11.00
2019-04-25T02:24:19.068Z,10.90
2019-04-25T02:26:45.925Z,10.80
2019-04-25T02:29:13.667Z,11.00
2019-04-25T02:31:40.705Z,10.90
2019-04-25T02:34:08.605Z,10.80
2019-04-25T02:36:36.049Z,10.90
2019-04-25T02:39:08.967Z,11.00
2019-04-25T02:41:36.010Z,10.80
2019-04-25T02:44:09.296Z,10.70
2019-04-25T02:46:51.925Z,10.60
2019-04-25T02:49:34.823Z,10.50
2019-04-25T02:52:15.260Z,10.70
2019-04-25T02:54:40.033Z,10.70
2019-04-25T02:57:08.273Z,10.50
2019-04-25T02:59:36.987Z,10.50
2019-04-25T03:02:05.784Z,10.60
2019-04-25T03:04:33.933Z,10.50
2019-04-25T03:07:02.680Z,10.50
2019-04-25T03:09:29.654Z,10.50
2019-04-25T03:11:58.223Z,10.60
2019-04-25T03:14:26.811Z,10.60
2019-04-25T03:16:54.384Z,10.60
2019-04-25T03:19:24.411Z,10.50
2019-04-25T03:21:56.457Z,10.60
2019-04-25T03:24:25.048Z,10.70
2019-04-25T03:26:53.217Z,10.70
2019-04-25T03:29:20.206Z,10.80
2019-04-25T03:31:47.113Z,10.70
2019-04-25T03:34:19.247Z,10.50
2019-04-25T03:36:43.829Z,10.60
2019-04-25T03:39:11.008Z,10.70
2019-04-25T03:41:37.804Z,10.70
2019-04-25T03:44:05.455Z,10.70
2019-04-25T03:46:33.422Z,10.60
2019-04-25T03:49:00.285Z,10.70
2019-04-25T03:51:27.149Z,10.60
2019-04-25T03:53:53.941Z,10.40
2019-04-25T03:56:20.776Z,10.40
2019-04-25T03:58:47.555Z,10.40
2019-04-25T04:01:15.579Z,10.30
2019-04-25T04:03:43.993Z,10.20
2019-04-25T04:06:11.661Z,10.10
2019-04-25T04:08:38.497Z,10.00
2019-04-25T04:11:07.327Z,9.90
2019-04-25T04:13:34.347Z,9.90
2019-04-25T04:16:01.270Z,9.80
2019-04-25T04:18:35.973Z,9.80
2019-04-25T04:21:21.281Z,9.70
2019-04-25T04:23:57.263Z,9.60
2019-04-25T04:26:24.474Z,9.70
2019-04-25T04:28:51.344Z,9.80
2019-04-25T04:31:18.212Z,9.90
2019-04-25T04:33:45.057Z,10.10
2019-04-25T04:36:11.912Z,10.00
2019-04-25T04:38:38.713Z,9.90
2019-04-25T04:41:05.539Z,10.00
2019-04-25T04:43:34.112Z,10.10
2019-04-25T04:46:01.045Z,10.10
2019-04-25T04:48:27.838Z,10.10
2019-04-25T04:50:54.679Z,10.10
2019-04-25T04:53:21.503Z,10.20
2019-04-25T04:55:48.344Z,10.40
2019-04-25T04:58:16.191Z,10.70
2019-04-25T05:00:43.864Z,11.10
2019-04-25T05:03:27.546Z,11.60
2019-04-25T05:05:59.114Z,12.10
2019-04-25T05:08:30.504Z,12.40
2019-04-25T05:10:57.489Z,12.70
2019-04-25T05:13:24.314Z,12.90
2019-04-25T05:15:51.181Z,13.10
2019-04-25T05:18:31.543Z,13.30
2019-04-25T05:20:46.936Z,13.40
2019-04-25T05:23:15.114Z,13.40
2019-04-25T05:25:44.083Z,13.50
2019-04-25T05:28:10.890Z,13.60
2019-04-25T05:30:55.900Z,13.80
2019-04-25T05:33:23.632Z,14.10
2019-04-25T05:35:51.045Z,14.20
2019-04-25T05:38:18.333Z,14.20
2019-04-25T05:40:56.109Z,14.30
2019-04-25T05:43:24.582Z,14.40
2019-04-25T05:45:54.064Z,14.70
2019-04-25T05:48:21.166Z,14.90
2019-04-25T05:50:47.945Z,15.10
2019-04-25T05:53:16.196Z,15.00
2019-04-25T05:55:44.146Z,15.00
2019-04-25T05:58:11.080Z,15.00
2019-04-25T06:00:38.781Z,15.30
2019-04-25T06:03:05.637Z,15.50
2019-04-25T06:05:33.483Z,15.60
2019-04-25T06:08:00.465Z,15.70
2019-04-25T06:10:34.937Z,16.10
2019-04-25T06:13:23.255Z,16.30
2019-04-25T06:15:53.351Z,16.10
2019-04-25T06:18:28.384Z,16.30
2019-04-25T06:20:55.648Z,16.70
2019-04-25T06:23:25.587Z,16.70
2019-04-25T06:25:53.805Z,16.90
2019-04-25T06:28:23.954Z,16.90
2019-04-25T06:30:51.263Z,16.50
2019-04-25T06:33:18.150Z,16.50
2019-04-25T06:35:44.981Z,16.70
2019-04-25T06:38:13.267Z,16.70
2019-04-25T06:40:40.314Z,17.00
2019-04-25T06:43:07.159Z,16.60
2019-04-25T06:45:50.061Z,16.80
2019-04-25T06:48:21.340Z,17.00
2019-04-25T06:50:48.156Z,17.40
2019-04-25T06:53:14.993Z,17.70
2019-04-25T06:55:43.352Z,17.80
2019-04-25T06:58:12.820Z,17.50
2019-04-25T07:00:42.604Z,17.70
2019-04-25T07:03:07.704Z,17.70
2019-04-25T07:05:40.196Z,18.10
2019-04-25T07:08:03.425Z,17.90
2019-04-25T07:10:30.321Z,17.80
2019-04-25T07:12:57.864Z,18.20
2019-04-25T07:15:26.664Z,18.50
2019-04-25T07:17:54.046Z,18.60
2019-04-25T07:20:21.733Z,18.80
2019-04-25T07:22:48.559Z,18.60
2019-04-25T07:25:15.752Z,18.60
2019-04-25T07:28:00.930Z,18.90
2019-04-25T07:30:46.831Z,18.90
2019-04-25T07:33:21.217Z,19.20
2019-04-25T07:35:48.053Z,19.50
2019-04-25T07:38:14.893Z,19.50
2019-04-25T07:40:43.364Z,19.60
2019-04-25T07:43:10.328Z,19.70
2019-04-25T07:45:37.112Z,19.40
2019-04-25T07:48:04.129Z,19.00
2019-04-25T07:50:30.941Z,18.80
2019-04-25T07:52:57.781Z,19.00
2019-04-25T07:55:24.604Z,19.30
2019-04-25T07:57:51.468Z,19.60
2019-04-25T08:00:19.207Z,20.00
2019-04-25T08:02:46.041Z,19.90
2019-04-25T08:05:15.295Z,20.00
2019-04-25T08:07:43.591Z,20.00
2019-04-25T08:10:12.034Z,20.10
2019-04-25T08:12:40.846Z,20.10
2019-04-25T08:15:10.289Z,20.00
2019-04-25T08:17:57.060Z,20.30
2019-04-25T08:20:24.413Z,20.20
2019-04-25T08:22:57.136Z,20.40
2019-04-25T08:25:21.241Z,20.30
2019-04-25T08:27:48.189Z,20.60
2019-04-25T08:30:14.977Z,20.50
2019-04-25T08:32:41.851Z,20.70
2019-04-25T08:35:09.057Z,21.00
2019-04-25T08:37:36.628Z,20.80
2019-04-25T08:40:05.209Z,20.70
2019-04-25T08:42:32.830Z,21.00
2019-04-25T08:45:00.796Z,21.10
2019-04-25T08:47:27.587Z,21.20
2019-04-25T08:49:56.234Z,21.50
2019-04-25T08:52:24.354Z,21.40
2019-04-25T08:54:54.624Z,21.50
2019-04-25T08:57:40.136Z,21.70
2019-04-25T09:00:10.966Z,21.40
2019-04-25T09:02:40.432Z,22.00
2019-04-25T09:05:17.489Z,22.50
2019-04-25T09:07:45.327Z,22.20
2019-04-25T09:10:13.772Z,22.60
2019-04-25T09:12:41.786Z,22.80
2019-04-25T09:15:09.227Z,22.60
2019-04-25T09:17:37.226Z,22.40
2019-04-25T09:20:05.474Z,22.20
2019-04-25T09:22:35.040Z,22.30
2019-04-25T09:25:01.301Z,22.30
2019-04-25T09:27:28.133Z,22.50
2019-04-25T09:29:54.922Z,22.30
2019-04-25T09:32:21.814Z,22.10
2019-04-25T09:34:48.608Z,21.90
2019-04-25T09:37:15.449Z,22.10
2019-04-25T09:39:58.944Z,22.10
2019-04-25T09:42:25.785Z,21.80
2019-04-25T09:45:11.366Z,22.20
2019-04-25T09:47:39.304Z,22.40
2019-04-25T09:50:08.617Z,22.30
2019-04-25T09:52:36.110Z,22.50
2019-04-25T09:55:21.780Z,22.70
2019-04-25T09:57:59.373Z,22.70
2019-04-25T10:00:38.240Z,22.90
2019-04-25T10:03:05.416Z,22.80
2019-04-25T10:05:33.822Z,22.70
2019-04-25T10:08:01.068Z,23.30
2019-04-25T10:10:28.717Z,23.60
2019-04-25T10:12:55.499Z,23.90
2019-04-25T10:15:46.034Z,24.20
2019-04-25T10:18:14.286Z,24.40
2019-04-25T10:20:41.396Z,24.70
2019-04-25T10:23:08.585Z,25.10
2019-04-25T10:25:35.417Z,25.10
2019-04-25T10:28:04.278Z,24.90
2019-04-25T10:30:31.077Z,25.20
2019-04-25T10:32:57.920Z,25.30
2019-04-25T10:35:24.849Z,25.40
2019-04-25T10:37:53.345Z,25.10
2019-04-25T10:40:20.686Z,25.30
2019-04-25T10:42:49.284Z,25.30
2019-04-25T10:45:23.152Z,25.50
2019-04-25T10:47:45.261Z,25.70
2019-04-25T10:50:13.547Z,26.00
2019-04-25T10:52:41.560Z,26.00
2019-04-25T10:55:08.662Z,25.50
2019-04-25T10:57:35.501Z,25.30
2019-04-25T11:00:08.990Z,25.60
2019-04-25T11:02:34.600Z,25.90
2019-04-25T11:05:09.313Z,26.00
2019-04-25T11:07:36.853Z,26.00
2019-04-25T11:10:05.080Z,26.00
2019-04-25T11:12:33.661Z,26.10
2019-04-25T11:15:00.909Z,26.00
2019-04-25T11:17:27.733Z,26.40
2019-04-25T11:19:55.462Z,26.40
2019-04-25T11:22:23.910Z,26.30
2019-04-25T11:24:50.866Z,26.50
2019-04-25T11:27:17.720Z,26.40
2019-04-25T11:29:45.070Z,26.20
2019-04-25T11:32:14.851Z,26.00
2019-04-25T11:34:43.154Z,25.90
2019-04-25T11:37:10.481Z,25.70
2019-04-25T11:39:39.128Z,25.80
2019-04-25T11:42:07.268Z,26.00
2019-04-25T11:44:35.040Z,26.10
2019-04-25T11:47:03.895Z,26.20
2019-04-25T11:49:30.872Z,26.10
2019-04-25T11:51:57.648Z,26.10
2019-04-25T11:54:24.570Z,25.80
2019-04-25T11:56:51.546Z,25.60
2019-04-25T11:59:18.503Z,25.30
2019-04-25T12:01:46.742Z,25.20
2019-04-25T12:04:14.886Z,25.40
2019-04-25T12:06:43.120Z,25.50
2019-04-25T12:09:13.961Z,25.70
2019-04-25T12:11:41.166Z,25.50
2019-04-25T12:14:07.968Z,25.60
2019-04-25T12:16:34.760Z,25.70
2019-04-25T12:19:01.634Z,25.80
2019-04-25T12:21:28.608Z,25.90
2019-04-25T12:23:55.487Z,25.80
2019-04-25T12:26:24.251Z,26.00
2019-04-25T12:28:51.427Z,26.00
2019-04-25T12:31:18.521Z,26.10
2019-04-25T12:33:47.601Z,26.00
2019-04-25T12:36:14.570Z,26.10
2019-04-25T12:38:41.416Z,26.20
2019-04-25T12:41:08.352Z,26.50
2019-04-25T12:43:36.985Z,26.50
2019-04-25T12:46:11.788Z,26.50
2019-04-25T12:48:38.660Z,26.30
2019-04-25T12:51:05.503Z,26.10
2019-04-25T12:53:33.436Z,26.10
2019-04-25T12:56:01.052Z,26.50
2019-04-25T12:58:27.833Z,26.50
2019-04-25T13:00:58.319Z,26.50
2019-04-25T13:03:24.157Z,26.20
2019-04-25T13:05:51.107Z,25.90
2019-04-25T13:08:18.929Z,25.90
2019-04-25T13:10:45.776Z,26.20
2019-04-25T13:13:14.921Z,26.20
2019-04-25T13:15:44.267Z,25.90
2019-04-25T13:18:09.955Z,25.90
2019-04-25T13:20:36.797Z,26.00
2019-04-25T13:23:05.769Z,26.00
2019-04-25T13:25:34.288Z,25.70
2019-04-25T13:28:09.402Z,25.70
2019-04-25T13:30:43.956Z,25.60
2019-04-25T13:33:24.645Z,26.00
2019-04-25T13:35:54.351Z,26.50
2019-04-25T13:38:21.300Z,27.10
2019-04-25T13:40:48.204Z,27.10
2019-04-25T13:43:15.172Z,26.30
2019-04-25T13:45:42.007Z,26.00
2019-04-25T13:48:08.913Z,25.70
2019-04-25T13:50:35.748Z,25.60
2019-04-25T13:53:03.363Z,25.40
2019-04-25T13:55:30.284Z,25.40
2019-04-25T13:57:57.100Z,25.30
2019-04-25T14:00:24.885Z,25.30
2019-04-25T14:02:52.724Z,25.10
2019-04-25T14:05:21.365Z,24.90
2019-04-25T14:07:48.360Z,25.00
2019-04-25T14:10:15.481Z,25.00
2019-04-25T14:12:43.559Z,25.10
2019-04-25T14:15:13.819Z,25.10
2019-04-25T14:17:44.748Z,24.90
2019-04-25T14:20:23.364Z,24.80
2019-04-25T14:22:50.951Z,24.90
2019-04-25T14:25:19.436Z,25.00
2019-04-25T14:27:46.277Z,24.90
2019-04-25T14:30:14.865Z,24.60
2019-04-25T14:32:41.696Z,24.70
2019-04-25T14:35:09.028Z,24.60
2019-04-25T14:37:39.627Z,24.50
2019-04-25T14:40:06.388Z,24.40
2019-04-25T14:42:33.263Z,24.40
2019-04-25T14:45:00.117Z,24.30
2019-04-25T14:47:27.450Z,24.20
2019-04-25T14:49:54.345Z,24.20
2019-04-25T14:52:21.161Z,24.10
2019-04-25T14:54:55.856Z,24.10
2019-04-25T14:57:24.436Z,24.00
2019-04-25T14:59:51.285Z,23.90
2019-04-25T15:02:19.076Z,23.90
2019-04-25T15:04:45.931Z,23.80
2019-04-25T15:07:12.714Z,23.80
2019-04-25T15:09:39.732Z,23.80
2019-04-25T15:12:06.576Z,24.10
2019-04-25T15:14:33.544Z,24.10
2019-04-25T15:17:00.362Z,24.10
2019-04-25T15:19:27.511Z,24.10
2019-04-25T15:21:54.390Z,24.10
2019-04-25T15:24:21.224Z,24.10
2019-04-25T15:26:48.098Z,24.30
2019-04-25T15:29:14.908Z,24.10
2019-04-25T15:31:41.711Z,24.10
2019-04-25T15:34:08.602Z,24.10
2019-04-25T15:36:39.762Z,24.10
2019-04-25T15:39:25.074Z,24.20
2019-04-25T15:42:11.924Z,24.30
2019-04-25T15:44:43.576Z,24.60
2019-04-25T15:47:12.269Z,24.70
2019-04-25T15:49:39.057Z,24.90
2019-04-25T15:52:06.602Z,25.00
2019-04-25T15:54:33.862Z,25.00
2019-04-25T15:57:00.833Z,25.00
2019-04-25T15:59:28.702Z,24.60
2019-04-25T16:02:07.477Z,24.50
2019-04-25T16:04:24.351Z,24.60
2019-04-25T16:06:51.144Z,24.60
2019-04-25T16:09:17.979Z,24.60
2019-04-25T16:11:44.791Z,24.40
2019-04-25T16:14:11.616Z,24.40
2019-04-25T16:16:38.450Z,24.30
2019-04-25T16:19:05.276Z,24.40
2019-04-25T16:21:32.259Z,24.20
2019-04-25T16:23:59.359Z,24.10
2019-04-25T16:26:26.950Z,24.10
2019-04-25T16:28:54.780Z,24.00
2019-04-25T16:31:23.434Z,24.00
2019-04-25T16:33:50.268Z,24.10
2019-04-25T16:36:17.092Z,24.20
2019-04-25T16:38:44.020Z,24.30
2019-04-25T16:41:11.399Z,24.20
2019-04-25T16:43:40.968Z,24.20
2019-04-25T16:46:07.965Z,24.20
2019-04-25T16:48:35.671Z,24.10
2019-04-25T16:51:02.532Z,24.00
2019-04-25T16:53:30.286Z,23.90
2019-04-25T16:55:59.872Z,23.80
2019-04-25T16:58:26.724Z,23.70
2019-04-25T17:00:55.321Z,23.60
2019-04-25T17:03:24.098Z,23.50
2019-04-25T17:05:50.981Z,23.50
2019-04-25T17:08:18.126Z,23.50
2019-04-25T17:10:44.965Z,23.50
2019-04-25T17:13:11.949Z,23.50
2019-04-25T17:15:49.613Z,23.40
2019-04-25T17:18:27.258Z,23.30
2019-04-25T17:20:58.505Z,23.30
2019-04-25T17:23:25.361Z,23.30
2019-04-25T17:25:52.194Z,23.20
2019-04-25T17:28:19.072Z,23.10
2019-04-25T17:30:48.188Z,23.00
2019-04-25T17:33:16.853Z,22.80
2019-04-25T17:35:45.469Z,22.80
2019-04-25T17:38:16.179Z,22.80
2019-04-25T17:40:43.046Z,22.70
2019-04-25T17:43:11.121Z,22.60
2019-04-25T17:45:39.119Z,22.50
2019-04-25T17:48:06.033Z,22.40
2019-04-25T17:50:32.959Z,22.40
2019-04-25T17:53:00.009Z,22.40
2019-04-25T17:55:26.785Z,22.30
2019-04-25T17:57:53.616Z,22.20
2019-04-25T18:00:22.345Z,22.20
2019-04-25T18:02:58.335Z,22.20
2019-04-25T18:05:18.177Z,22.10
2019-04-25T18:07:45.328Z,22.00
2019-04-25T18:10:14.358Z,21.90
2019-04-25T18:12:42.171Z,21.80
2019-04-25T18:15:11.307Z,21.80
2019-04-25T18:17:38.152Z,21.70
2019-04-25T18:20:10.818Z,21.50
2019-04-25T18:22:43.340Z,21.60
2019-04-25T18:25:12.194Z,21.50
2019-04-25T18:27:44.240Z,21.40
2019-04-25T18:30:11.140Z,21.20
2019-04-25T18:32:39.734Z,21.10
2019-04-25T18:35:08.481Z,21.10
2019-04-25T18:37:54.072Z,21.00
2019-04-25T18:40:31.731Z,20.80
2019-04-25T18:43:00.316Z,20.70
2019-04-25T18:45:29.076Z,20.70
2019-04-25T18:47:55.869Z,20.70
2019-04-25T18:50:24.523Z,20.70
2019-04-25T18:52:53.214Z,20.70
2019-04-25T18:55:21.809Z,20.70
2019-04-25T18:57:53.275Z,20.70
2019-04-25T19:00:37.803Z,20.60
2019-04-25T19:03:22.442Z,20.60
2019-04-25T19:06:03.001Z,20.50
2019-04-25T19:08:30.280Z,20.50
2019-04-25T19:10:57.699Z,20.40
2019-04-25T19:13:24.549Z,20.30
2019-04-25T19:15:51.833Z,20.30
2019-04-25T19:18:18.670Z,20.20
2019-04-25T19:20:46.046Z,20.20
2019-04-25T19:23:13.100Z,20.40
2019-04-25T19:25:40.271Z,20.40
2019-04-25T19:28:07.261Z,20.30
2019-04-25T19:30:34.071Z,20.10
2019-04-25T19:33:00.912Z,20.20
2019-04-25T19:35:27.730Z,20.10
2019-04-25T19:37:55.873Z,20.20
2019-04-25T19:40:42.146Z,20.20
2019-04-25T19:43:10.953Z,20.20
2019-04-25T19:45:38.339Z,20.20
2019-04-25T19:48:05.121Z,20.10
2019-04-25T19:50:31.948Z,20.20
2019-04-25T19:52:58.761Z,20.20
2019-04-25T19:55:25.597Z,20.20
2019-04-25T19:57:52.578Z,20.20
2019-04-25T20:00:19.843Z,20.10
2019-04-25T20:02:54.145Z,20.00
2019-04-25T20:05:32.349Z,20.10
2019-04-25T20:08:09.773Z,20.10
2019-04-25T20:10:38.450Z,19.90
2019-04-25T20:13:05.335Z,19.90
2019-04-25T20:15:32.230Z,19.80
2019-04-25T20:17:59.021Z,19.80
2019-04-25T20:20:25.853Z,19.80
2019-04-25T20:22:52.705Z,19.60
2019-04-25T20:25:19.597Z,19.50
2019-04-25T20:27:46.709Z,19.40
2019-04-25T20:30:14.242Z,19.40
2019-04-25T20:32:41.044Z,19.30
2019-04-25T20:35:08.196Z,19.10
2019-04-25T20:37:35.017Z,19.20
2019-04-25T20:40:01.900Z,19.10
2019-04-25T20:42:28.690Z,19.10
2019-04-25T20:44:56.052Z,18.90
2019-04-25T20:47:22.964Z,18.70
2019-04-25T20:49:50.642Z,18.70
2019-04-25T20:52:18.029Z,18.60
2019-04-25T20:54:44.818Z,18.60
2019-04-25T20:57:11.697Z,18.60
2019-04-25T20:59:38.536Z,18.70
2019-04-25T21:02:06.332Z,18.50
2019-04-25T21:04:40.259Z,18.40
2019-04-25T21:07:07.043Z,18.30
2019-04-25T21:09:34.282Z,18.10
2019-04-25T21:12:01.464Z,18.00
2019-04-25T21:14:30.034Z,17.80
2019-04-25T21:16:58.704Z,17.70
2019-04-25T21:19:42.120Z,17.60
2019-04-25T21:22:09.069Z,17.60
2019-04-25T21:24:35.853Z,17.70
2019-04-25T21:27:02.681Z,17.80
2019-04-25T21:29:29.652Z,17.80
2019-04-25T21:31:56.741Z,17.90
2019-04-25T21:34:26.512Z,17.90
2019-04-25T21:36:53.272Z,17.70
2019-04-25T21:39:37.508Z,17.50
2019-04-25T21:42:25.090Z,17.50
2019-04-25T21:44:53.880Z,17.70
2019-04-25T21:47:20.981Z,17.70
2019-04-25T21:49:48.120Z,17.70
2019-04-25T21:52:15.318Z,17.80
2019-04-25T21:54:42.262Z,17.60
2019-04-25T21:57:09.253Z,17.70
2019-04-25T21:59:36.203Z,17.90
2019-04-25T22:02:03.590Z,18.00
2019-04-25T22:04:38.649Z,18.20
2019-04-25T22:06:59.480Z,18.30
2019-04-25T22:09:27.824Z,18.30
2019-04-25T22:11:56.208Z,18.30
2019-04-25T22:14:23.949Z,18.30
2019-04-25T22:16:51.139Z,18.20
2019-04-25T22:19:18.680Z,18.20
2019-04-25T22:21:45.933Z,18.10
2019-04-25T22:24:15.141Z,18.00
2019-04-25T22:26:41.633Z,17.90
2019-04-25T22:29:08.785Z,17.90
2019-04-25T22:31:37.567Z,17.80
2019-04-25T22:34:08.861Z,17.70
2019-04-25T22:36:36.051Z,17.50
2019-04-25T22:39:13.059Z,17.30
2019-04-25T22:41:45.981Z,17.00
2019-04-25T22:44:14.015Z,16.90
2019-04-25T22:46:42.153Z,16.80
2019-04-25T22:49:09.641Z,16.80
2019-04-25T22:51:36.726Z,16.90
2019-04-25T22:54:05.358Z,16.90
2019-04-25T22:56:32.332Z,16.80
2019-04-25T22:58:59.278Z,16.70
2019-04-25T23:01:35.160Z,16.60
2019-04-25T23:04:03.930Z,16.60
2019-04-25T23:06:31.291Z,16.50
2019-04-25T23:08:58.232Z,16.40
2019-04-25T23:11:25.199Z,16.30
2019-04-25T23:13:52.366Z,16.20
2019-04-25T23:16:19.545Z,16.20
2019-04-25T23:18:46.452Z,16.20
2019-04-25T23:21:14.361Z,16.20
2019-04-25T23:23:41.420Z,16.00
2019-04-25T23:26:13.138Z,16.00
2019-04-25T23:28:45.584Z,15.90
2019-04-25T23:31:14.692Z,16.00
2019-04-25T23:33:41.521Z,16.00
2019-04-25T23:36:09.087Z,16.00
2019-04-25T23:38:36.092Z,16.00
2019-04-25T23:41:03.217Z,16.00
2019-04-25T23:43:30.121Z,16.00
2019-04-25T23:45:56.900Z,15.90
2019-04-25T23:48:24.043Z,15.90
2019-04-25T23:50:53.523Z,15.90
2019-04-25T23:53:19.460Z,15.90
2019-04-25T23:55:46.296Z,16.00
2019-04-25T23:58:13.473Z,16.10
